Time;durP1;ratioP1;P1;durP2;ratioP2;P2;SDS_P1;SDS_P2;PMS_P1;PMS_P2;Temp;Humidity;BMP_temperature;BMP_pressure;BME280_temperature;BME280_humidity;BME280_pressure;Samples;Min_cycle;Max_cycle;Signal;HPM_P1;HPM_P2
2023/01/11 00:01:51;;;;;;;28.60;3.95;;;10.30;99.90;;;;;;5049854;28;20021;-85
2023/01/11 00:04:16;;;;;;;27.20;3.58;;;10.30;99.90;;;;;;5062119;28;20469;-85
2023/01/11 00:06:42;;;;;;;27.38;4.65;;;10.30;99.90;;;;;;5059258;28;20438;-85
2023/01/11 00:09:08;;;;;;;37.20;4.25;;;10.30;99.90;;;;;;5062496;28;20567;-85
2023/01/11 00:11:34;;;;;;;32.60;3.50;;;10.30;99.90;;;;;;5045075;28;20043;-84
2023/01/11 00:13:59;;;;;;;36.83;4.13;;;10.30;99.90;;;;;;5065043;28;20086;-84
2023/01/11 00:16:25;;;;;;;33.42;3.70;;;10.30;99.90;;;;;;5062493;28;20028;-84
2023/01/11 00:18:50;;;;;;;27.50;3.40;;;10.30;99.90;;;;;;5063786;28;20147;-83
2023/01/11 00:21:16;;;;;;;27.90;3.30;;;10.30;99.90;;;;;;5044497;28;20028;-83
2023/01/11 00:23:41;;;;;;;28.80;3.38;;;10.30;99.90;;;;;;5062984;28;20032;-84
2023/01/11 00:26:10;;;;;;;22.58;3.92;;;10.40;99.90;;;;;;5046307;28;20064;-85
2023/01/11 00:28:36;;;;;;;33.58;3.55;;;10.50;99.90;;;;;;5051148;28;20480;-84
2023/01/11 00:31:02;;;;;;;27.05;4.05;;;10.60;99.90;;;;;;5045599;28;20028;-83
2023/01/11 00:33:27;;;;;;;27.80;3.25;;;10.60;99.90;;;;;;5044347;28;20032;-85
2023/01/11 00:35:53;;;;;;;25.35;2.78;;;10.60;99.90;;;;;;5062217;28;20024;-85
2023/01/11 00:49:17;;;;;;;18.20;1.88;;;10.50;99.90;;;;;;5060902;28;20403;-84
2023/01/11 00:51:43;;;;;;;13.02;2.00;;;10.50;99.90;;;;;;5042678;28;20044;-84
2023/01/11 00:54:09;;;;;;;9.18;1.55;;;10.40;99.90;;;;;;5062189;28;20662;-84
2023/01/11 00:56:34;;;;;;;8.27;1.42;;;10.30;99.90;;;;;;5034779;28;20035;-83
2023/01/11 00:59:01;;;;;;;15.93;1.83;;;10.20;99.90;;;;;;5063012;28;20470;-83
2023/01/11 01:01:26;;;;;;;6.68;1.10;;;10.00;99.90;;;;;;5057059;28;20352;-84
2023/01/11 01:03:52;;;;;;;8.18;1.17;;;9.90;99.90;;;;;;5043480;28;20115;-82
2023/01/11 01:06:18;;;;;;;8.90;1.20;;;9.80;99.90;;;;;;5043781;28;20541;-83
2023/01/11 01:08:43;;;;;;;12.32;1.80;;;9.70;99.90;;;;;;5063552;28;20056;-83
2023/01/11 01:11:09;;;;;;;16.77;1.65;;;9.70;99.90;;;;;;5061980;28;20103;-83
2023/01/11 01:16:19;;;;;;;12.00;1.38;;;9.50;99.90;;;;;;5061882;28;20031;-84
2023/01/11 01:18:44;;;;;;;9.88;1.58;;;9.50;99.90;;;;;;5063437;28;20475;-84
2023/01/11 01:21:10;;;;;;;13.20;1.55;;;9.40;99.90;;;;;;5047159;28;20093;-84
2023/01/11 01:23:35;;;;;;;13.43;2.30;;;9.40;99.90;;;;;;5067413;28;20103;-83
2023/01/11 01:26:05;;;;;;;11.80;1.65;;;9.30;99.90;;;;;;5062778;28;20467;-84
2023/01/11 01:28:31;;;;;;;6.05;1.00;;;9.30;99.90;;;;;;5062048;28;20025;-83
2023/01/11 01:30:57;;;;;;;12.45;1.25;;;9.20;99.90;;;;;;5056214;28;20165;-83
2023/01/11 01:33:23;;;;;;;8.38;1.42;;;9.20;99.90;;;;;;5063444;28;20318;-84
2023/01/11 01:35:49;;;;;;;8.52;1.48;;;9.10;99.90;;;;;;5053795;28;20135;-82
2023/01/11 01:38:15;;;;;;;9.38;1.30;;;9.10;99.90;;;;;;5062080;28;20032;-85
2023/01/11 01:40:47;;;;;;;11.75;1.20;;;9.10;99.90;;;;;;5044883;28;20044;-83
2023/01/11 01:43:17;;;;;;;15.75;1.73;;;9.10;99.90;;;;;;5043750;28;20093;-84
2023/01/11 01:45:42;;;;;;;12.23;1.33;;;9.00;99.90;;;;;;5041884;28;20089;-83
2023/01/11 01:48:11;;;;;;;12.90;1.40;;;8.90;99.90;;;;;;5061535;28;20060;-83
2023/01/11 01:50:42;;;;;;;12.38;1.33;;;8.90;99.90;;;;;;5060470;28;20137;-83
2023/01/11 01:53:13;;;;;;;10.68;1.50;;;8.90;99.90;;;;;;5062655;28;20063;-83
2023/01/11 01:55:43;;;;;;;14.32;1.45;;;8.80;99.90;;;;;;5060653;28;20124;-83
2023/01/11 01:58:12;;;;;;;12.00;1.58;;;8.70;99.90;;;;;;5063051;28;20274;-83
2023/01/11 02:00:39;;;;;;;6.30;1.20;;;8.60;99.90;;;;;;5062019;28;20571;-83
2023/01/11 02:03:06;;;;;;;9.35;1.50;;;8.60;99.90;;;;;;5023658;28;20367;-84
2023/01/11 02:05:32;;;;;;;8.82;1.05;;;8.60;99.90;;;;;;5034023;28;20043;-82
2023/01/11 02:07:59;;;;;;;12.25;1.70;;;8.50;99.90;;;;;;5040535;28;20032;-83
2023/01/11 02:10:28;;;;;;;10.95;1.00;;;8.50;99.90;;;;;;5040435;28;20292;-83
2023/01/11 02:13:04;;;;;;;12.68;1.52;;;8.40;99.90;;;;;;5040567;28;20045;-84
2023/01/11 02:15:30;;;;;;;5.85;1.55;;;8.30;99.90;;;;;;5039990;28;20017;-84
2023/01/11 02:17:56;;;;;;;11.48;1.73;;;8.30;99.90;;;;;;5041403;28;20040;-83
2023/01/11 02:20:22;;;;;;;11.30;1.83;;;8.20;99.90;;;;;;5037731;28;20021;-83
2023/01/11 02:23:05;;;;;;;14.18;1.05;;;8.20;99.90;;;;;;5041534;28;20433;-83
2023/01/11 02:25:50;;;;;;;11.77;1.60;;;8.20;99.90;;;;;;5040693;28;20545;-84
2023/01/11 02:28:33;;;;;;;10.63;1.20;;;8.10;99.90;;;;;;5042126;28;20110;-83
2023/01/11 02:31:13;;;;;;;8.80;1.65;;;8.10;99.90;;;;;;5052432;28;20351;-82
2023/01/11 02:33:53;;;;;;;11.90;1.40;;;8.10;99.90;;;;;;5033280;28;20124;-82
2023/01/11 02:36:21;;;;;;;7.80;1.05;;;8.10;99.90;;;;;;5034156;28;20085;-84
2023/01/11 02:39:07;;;;;;;9.20;1.08;;;8.00;99.90;;;;;;5044994;28;20095;-83
2023/01/11 02:45:09;;;;;;;11.80;1.90;;;7.90;99.90;;;;;;5031766;28;20074;-83
2023/01/11 02:48:11;;;;;;;12.93;1.58;;;7.90;99.90;;;;;;5042528;28;20029;-83
2023/01/11 02:50:59;;;;;;;12.25;1.67;;;8.00;99.90;;;;;;5044237;28;20269;-83
2023/01/11 02:53:28;;;;;;;12.57;1.92;;;8.00;99.90;;;;;;5045631;28;20049;-83
2023/01/11 02:55:58;;;;;;;14.98;1.45;;;8.00;99.90;;;;;;5043422;28;20057;-84
2023/01/11 02:58:28;;;;;;;10.32;1.70;;;7.90;99.90;;;;;;5045041;28;20041;-83
2023/01/11 03:00:57;;;;;;;13.07;1.75;;;7.90;99.90;;;;;;5037906;28;20099;-83
2023/01/11 03:03:26;;;;;;;11.80;1.40;;;8.00;99.90;;;;;;5051799;28;20204;-82
2023/01/11 03:05:57;;;;;;;11.75;1.67;;;7.90;99.90;;;;;;5046861;28;20123;-82
2023/01/11 03:08:23;;;;;;;;;;;7.90;99.90;;;;;;5060970;28;20101;-84
2023/01/11 03:11:00;;;;;;;12.85;1.90;;;7.90;99.90;;;;;;5046360;28;20007;-84
2023/01/11 03:13:53;;;;;;;18.85;2.70;;;7.90;99.90;;;;;;5032029;28;20041;-83
2023/01/11 03:16:22;;;;;;;12.40;1.75;;;7.80;99.90;;;;;;5047667;28;20041;-83
2023/01/11 03:18:52;;;;;;;12.80;1.67;;;7.80;99.90;;;;;;5065326;28;20108;-83
2023/01/11 03:22:00;;;;;;;12.00;1.65;;;7.80;99.90;;;;;;5052564;28;20102;-83
2023/01/11 03:24:47;;;;;;;8.60;1.23;;;7.80;99.90;;;;;;5046029;28;20056;-84
2023/01/11 03:27:34;;;;;;;9.43;1.48;;;7.70;99.90;;;;;;5063931;28;20094;-84
2023/01/11 03:30:15;;;;;;;14.05;2.08;;;7.60;99.90;;;;;;5063139;28;20509;-83
2023/01/11 03:33:10;;;;;;;18.80;2.35;;;7.60;99.90;;;;;;5043560;28;20351;-83
2023/01/11 03:35:49;;;;;;;13.65;1.50;;;7.60;99.90;;;;;;5045133;28;20053;-83
2023/01/11 03:38:29;;;;;;;18.40;2.00;;;7.50;99.90;;;;;;5058692;28;20126;-84
2023/01/11 03:41:04;;;;;;;14.40;1.50;;;7.50;99.90;;;;;;5065603;28;20024;-83
2023/01/11 03:43:34;;;;;;;10.40;1.75;;;7.50;99.90;;;;;;5065533;28;20384;-82
2023/01/11 03:46:03;;;;;;;12.98;2.03;;;7.40;99.90;;;;;;5048384;28;20440;-83
2023/01/11 03:48:35;;;;;;;14.02;1.67;;;7.40;99.90;;;;;;5063476;28;20033;-83
2023/01/11 03:51:04;;;;;;;16.05;1.83;;;7.30;99.90;;;;;;5064787;28;20037;-83
2023/01/11 03:53:34;;;;;;;13.50;1.42;;;7.30;99.90;;;;;;5065183;28;20037;-84
2023/01/11 03:56:01;;;;;;;19.13;1.73;;;7.20;99.90;;;;;;5046840;28;20389;-83
2023/01/11 03:58:28;;;;;;;15.43;1.88;;;7.20;99.90;;;;;;5060052;28;20086;-83
2023/01/11 04:00:58;;;;;;;9.52;2.60;;;7.20;99.90;;;;;;5028986;28;20503;-83
2023/01/11 04:03:24;;;;;;;16.00;1.80;;;7.10;99.90;;;;;;5031563;28;20099;-83
2023/01/11 04:05:54;;;;;;;12.13;1.27;;;7.10;99.90;;;;;;5035732;28;20033;-82
2023/01/11 04:08:19;;;;;;;13.50;1.70;;;7.10;99.90;;;;;;5035850;28;20405;-82
2023/01/11 04:10:45;;;;;;;16.02;1.55;;;7.10;99.90;;;;;;5056360;28;20067;-83
2023/01/11 04:13:10;;;;;;;15.30;1.60;;;7.00;99.90;;;;;;5056400;28;20043;-83
2023/01/11 04:15:36;;;;;;;14.05;2.20;;;7.00;99.90;;;;;;5057175;28;20329;-82
2023/01/11 04:18:06;;;;;;;11.00;1.45;;;7.00;99.90;;;;;;5055228;28;20040;-83
2023/01/11 04:20:34;;;;;;;17.85;2.25;;;7.00;99.90;;;;;;5059949;28;20024;-83
2023/01/11 04:22:59;;;;;;;11.73;1.77;;;7.10;99.90;;;;;;5029804;28;20363;-82
2023/01/11 04:25:25;;;;;;;9.43;1.40;;;7.10;99.90;;;;;;5048817;28;20028;-83
2023/01/11 04:27:51;;;;;;;15.73;1.58;;;7.10;99.90;;;;;;5037765;28;20373;-82
2023/01/11 04:30:17;;;;;;;10.32;1.67;;;7.10;99.90;;;;;;5056551;28;20028;-83
2023/01/11 04:32:42;;;;;;;19.63;2.22;;;7.10;99.90;;;;;;5038114;28;20040;-83
2023/01/11 04:35:08;;;;;;;21.10;2.42;;;7.10;99.90;;;;;;5056393;28;20029;-83
2023/01/11 04:37:34;;;;;;;14.23;1.88;;;7.20;99.90;;;;;;5054725;28;20146;-84
2023/01/11 04:39:59;;;;;;;12.93;1.70;;;7.20;99.90;;;;;;5053768;28;20029;-84
2023/01/11 04:42:25;;;;;;;19.10;2.38;;;7.20;99.90;;;;;;5046451;28;20112;-84
2023/01/11 04:44:51;;;;;;;18.95;2.28;;;7.30;99.90;;;;;;5040078;28;20423;-83
2023/01/11 04:47:20;;;;;;;14.05;2.13;;;7.20;99.90;;;;;;5056062;28;20039;-84
2023/01/11 04:49:46;;;;;;;15.07;1.60;;;7.10;99.90;;;;;;5043103;28;20243;-82
2023/01/11 04:52:13;;;;;;;16.48;2.35;;;7.10;99.90;;;;;;5035079;28;20344;-83
2023/01/11 04:54:39;;;;;;;17.13;2.58;;;7.10;99.90;;;;;;5061811;28;20039;-83
2023/01/11 04:57:06;;;;;;;14.73;2.15;;;7.10;99.90;;;;;;5041815;28;20032;-84
2023/01/11 04:59:31;;;;;;;23.67;2.13;;;7.10;99.90;;;;;;5052408;28;20037;-82
2023/01/11 05:01:57;;;;;;;20.50;2.67;;;7.10;99.90;;;;;;5063446;28;20583;-83
2023/01/11 05:04:22;;;;;;;16.70;2.42;;;7.00;99.90;;;;;;5043992;28;20041;-82
2023/01/11 05:06:48;;;;;;;18.50;1.98;;;7.10;99.90;;;;;;5044479;28;20487;-82
2023/01/11 05:09:15;;;;;;;17.92;1.90;;;7.10;99.90;;;;;;5061072;28;20500;-83
2023/01/11 05:11:41;;;;;;;14.82;2.05;;;7.10;99.90;;;;;;5049261;28;20036;-82
2023/01/11 05:14:08;;;;;;;14.93;1.73;;;7.10;99.90;;;;;;5024882;28;20073;-82
2023/01/11 05:16:33;;;;;;;12.73;1.90;;;7.00;99.90;;;;;;5061985;28;20521;-81
2023/01/11 05:19:00;;;;;;;19.30;2.00;;;7.00;99.90;;;;;;5043470;28;20025;-81
2023/01/11 05:21:34;;;;;;;25.08;2.05;;;6.90;99.90;;;;;;5056618;28;20468;-83
2023/01/11 05:24:02;;;;;;;15.88;1.98;;;6.90;99.90;;;;;;5062502;28;20120;-82
2023/01/11 05:26:30;;;;;;;15.85;2.05;;;6.90;99.90;;;;;;5061363;28;20444;-80
2023/01/11 05:28:58;;;;;;;13.82;2.22;;;6.90;99.90;;;;;;5063043;28;20274;-83
2023/01/11 05:31:25;;;;;;;23.08;2.30;;;6.90;99.90;;;;;;5062610;28;20511;-83
2023/01/11 05:33:51;;;;;;;13.98;1.48;;;6.80;99.90;;;;;;5061942;28;20102;-81
2023/01/11 05:36:21;;;;;;;17.83;2.55;;;6.80;99.90;;;;;;5061862;28;20108;-83
2023/01/11 05:38:48;;;;;;;15.13;2.33;;;6.80;99.90;;;;;;5062471;28;20104;-82
2023/01/11 05:41:16;;;;;;;24.23;2.22;;;6.80;99.90;;;;;;5045623;28;20028;-82
2023/01/11 05:46:32;;;;;;;11.45;1.90;;;6.80;99.90;;;;;;5062155;28;20150;-83
2023/01/11 05:48:58;;;;;;;16.58;2.25;;;6.80;99.90;;;;;;5062745;28;20063;-82
2023/01/11 05:51:31;;;;;;;11.60;1.55;;;6.80;99.90;;;;;;5041806;28;20029;-83
2023/01/11 05:53:57;;;;;;;17.80;2.25;;;6.70;99.90;;;;;;5061006;28;20024;-82
2023/01/11 05:56:23;;;;;;;16.35;2.95;;;6.70;99.90;;;;;;5063944;28;20028;-82
2023/01/11 05:58:50;;;;;;;18.90;2.05;;;6.70;99.90;;;;;;5045140;28;20039;-82
2023/01/11 06:01:17;;;;;;;19.45;2.50;;;6.70;99.90;;;;;;5043806;28;20115;-82
2023/01/11 06:03:44;;;;;;;25.35;2.28;;;6.70;99.90;;;;;;5051043;28;20060;-83
2023/01/11 06:06:11;;;;;;;18.02;2.08;;;6.60;99.90;;;;;;5029941;28;20098;-82
2023/01/11 06:08:36;;;;;;;15.95;2.20;;;6.70;99.90;;;;;;5055133;28;20146;-82
2023/01/11 06:11:02;;;;;;;14.90;2.60;;;6.70;99.90;;;;;;5040771;28;20032;-82
2023/01/11 06:13:28;;;;;;;23.15;3.10;;;6.70;99.90;;;;;;5043023;28;20647;-83
2023/01/11 06:16:01;;;;;;;15.57;1.70;;;6.70;99.90;;;;;;5060142;28;20033;-82
2023/01/11 06:18:38;;;;;;;25.90;3.15;;;6.60;99.90;;;;;;5052077;28;20224;-82
2023/01/11 06:21:05;;;;;;;14.48;1.80;;;6.70;99.90;;;;;;5037522;28;20028;-82
2023/01/11 06:23:33;;;;;;;15.68;2.47;;;6.70;99.90;;;;;;5062827;28;20063;-81
2023/01/11 06:26:05;;;;;;;20.75;2.53;;;6.60;99.90;;;;;;5045078;28;20044;-82
2023/01/11 06:28:31;;;;;;;27.13;2.30;;;6.70;99.90;;;;;;5061686;28;20104;-82
2023/01/11 06:30:58;;;;;;;23.98;3.13;;;6.70;99.90;;;;;;5045604;28;20181;-81
2023/01/11 06:33:25;;;;;;;18.50;2.50;;;6.60;99.90;;;;;;5061996;28;20540;-83
2023/01/11 06:35:51;;;;;;;24.95;2.88;;;6.70;99.90;;;;;;5063522;28;20025;-82
2023/01/11 06:38:18;;;;;;;22.75;3.08;;;6.70;99.90;;;;;;5061376;28;20059;-82
2023/01/11 06:40:57;;;;;;;22.52;2.63;;;6.70;99.90;;;;;;5063564;28;20653;-82
2023/01/11 06:43:24;;;;;;;17.83;2.67;;;6.70;99.90;;;;;;5034482;28;20033;-82
2023/01/11 06:45:50;;;;;;;20.13;2.38;;;6.70;99.90;;;;;;5047287;28;20084;-82
2023/01/11 06:48:17;;;;;;;22.27;2.65;;;6.80;99.90;;;;;;5047502;28;20032;-82
2023/01/11 06:50:46;;;;;;;19.85;2.95;;;6.70;99.90;;;;;;5047783;28;20037;-83
2023/01/11 06:53:11;;;;;;;23.05;2.40;;;6.70;99.90;;;;;;5056513;28;20037;-83
2023/01/11 06:55:37;;;;;;;22.30;2.17;;;6.80;99.90;;;;;;5043785;28;20035;-83
2023/01/11 06:58:03;;;;;;;24.60;3.28;;;6.70;99.90;;;;;;5056621;28;20036;-82
2023/01/11 07:00:28;;;;;;;19.63;2.45;;;6.70;99.90;;;;;;5064011;28;20695;-82
2023/01/11 07:02:54;;;;;;;23.85;2.30;;;6.70;99.90;;;;;;5045650;28;20141;-83
2023/01/11 07:05:19;;;;;;;19.58;2.20;;;6.70;99.90;;;;;;5042764;28;20059;-82
2023/01/11 07:07:45;;;;;;;87.38;29.67;;;6.70;99.90;;;;;;5056177;28;20131;-82
2023/01/11 07:10:14;;;;;;;28.25;5.28;;;6.80;99.90;;;;;;5039181;28;20021;-82
2023/01/11 07:12:40;;;;;;;15.73;2.30;;;6.70;99.90;;;;;;5037172;28;20627;-82
2023/01/11 07:15:08;;;;;;;22.33;3.00;;;6.70;99.90;;;;;;5049732;28;20285;-82
2023/01/11 07:17:34;;;;;;;26.75;3.20;;;6.70;99.90;;;;;;5055525;28;20056;-82
2023/01/11 07:20:00;;;;;;;22.02;3.40;;;6.70;99.90;;;;;;5053774;28;20092;-82
2023/01/11 07:22:26;;;;;;;22.48;2.47;;;6.70;99.90;;;;;;5038390;28;20128;-81
2023/01/11 07:24:51;;;;;;;23.42;2.35;;;6.80;99.90;;;;;;3985460;28;10000896;-81
2023/01/11 07:27:20;;;;;;;22.77;2.95;;;6.90;99.90;;;;;;5039577;28;20036;-82
2023/01/11 07:29:46;;;;;;;26.67;3.20;;;6.90;99.90;;;;;;5038621;28;20029;-82
2023/01/11 07:32:12;;;;;;;26.17;2.45;;;6.90;99.90;;;;;;5059264;28;20090;-82
2023/01/11 07:34:38;;;;;;;20.23;2.03;;;6.90;99.90;;;;;;5040767;28;20119;-82
2023/01/11 07:37:04;;;;;;;16.08;2.45;;;6.90;99.90;;;;;;5056455;28;20111;-81
2023/01/11 07:39:30;;;;;;;22.70;2.72;;;6.90;99.90;;;;;;5041007;28;20017;-82
2023/01/11 07:44:59;;;;;;;14.82;2.95;;;6.90;99.90;;;;;;5006538;28;20367;-82
2023/01/11 07:47:26;;;;;;;19.23;2.65;;;6.90;99.90;;;;;;4997331;28;20032;-82
2023/01/11 07:49:52;;;;;;;20.60;2.22;;;6.80;99.90;;;;;;5038767;28;20097;-82
2023/01/11 07:52:18;;;;;;;23.25;3.65;;;6.90;99.90;;;;;;5061099;28;20036;-81
2023/01/11 07:54:43;;;;;;;19.95;2.58;;;7.00;99.90;;;;;;5061724;28;20013;-85
2023/01/11 07:57:09;;;;;;;14.48;2.08;;;7.00;99.90;;;;;;5045288;28;20032;-81
2023/01/11 07:59:35;;;;;;;21.05;2.65;;;6.90;99.90;;;;;;5042329;28;20048;-81
2023/01/11 08:02:00;;;;;;;13.80;1.52;;;7.00;99.90;;;;;;4688420;28;10000281;-82
2023/01/11 08:04:26;;;;;;;14.40;1.75;;;7.00;99.90;;;;;;5035377;28;20471;-81
2023/01/11 08:06:51;;;;;;;26.33;3.33;;;7.00;99.90;;;;;;5043161;28;20135;-82
2023/01/11 08:09:17;;;;;;;16.67;2.38;;;7.00;99.90;;;;;;5052922;28;20058;-81
2023/01/11 08:14:39;;;;;;;26.10;2.97;;;7.10;99.90;;;;;;5055822;28;20051;-81
2023/01/11 08:17:13;;;;;;;11.60;1.85;;;7.10;99.90;;;;;;5040066;28;20078;-82
2023/01/11 08:19:39;;;;;;;20.42;2.42;;;7.20;99.90;;;;;;5059017;28;20426;-81
2023/01/11 08:22:05;;;;;;;19.02;2.28;;;7.30;99.90;;;;;;5050940;28;20450;-81
2023/01/11 08:24:31;;;;;;;22.13;2.67;;;7.30;99.90;;;;;;5057479;28;20029;-78
2023/01/11 08:26:57;;;;;;;19.70;2.72;;;7.40;99.90;;;;;;5046050;28;20037;-81
2023/01/11 08:29:24;;;;;;;18.85;2.47;;;7.60;99.90;;;;;;5055709;28;20193;-81
2023/01/11 08:31:50;;;;;;;15.77;3.15;;;7.60;99.90;;;;;;5057449;28;20047;-81
2023/01/11 08:34:15;;;;;;;25.25;2.42;;;7.80;99.90;;;;;;5038870;28;20495;-81
2023/01/11 08:36:42;;;;;;;21.33;2.65;;;7.80;99.90;;;;;;5041351;28;20220;-81
2023/01/11 08:39:08;;;;;;;11.40;2.40;;;8.00;99.90;;;;;;5038422;28;20125;-82
2023/01/11 08:41:34;;;;;;;15.85;2.38;;;8.10;99.90;;;;;;5039314;28;20029;-82
2023/01/11 08:44:00;;;;;;;23.02;2.97;;;8.20;99.90;;;;;;5053684;28;20114;-82
2023/01/11 08:46:25;;;;;;;17.75;2.50;;;8.20;99.90;;;;;;5055033;28;20027;-82
2023/01/11 08:48:54;;;;;;;19.75;2.15;;;8.30;99.90;;;;;;5039390;28;20464;-82
2023/01/11 08:51:20;;;;;;;21.15;2.80;;;8.30;99.90;;;;;;5057470;28;20027;-81
2023/01/11 08:53:46;;;;;;;14.32;2.25;;;8.30;99.90;;;;;;5056846;28;20032;-81
2023/01/11 08:56:12;;;;;;;14.23;1.77;;;8.20;99.90;;;;;;5054948;28;20036;-81
2023/01/11 08:58:37;;;;;;;21.33;2.58;;;8.20;99.90;;;;;;5051432;28;20051;-81
2023/01/11 09:01:07;;;;;;;16.48;2.22;;;8.30;99.90;;;;;;5054331;28;20066;-82
2023/01/11 09:03:33;;;;;;;20.38;1.73;;;8.40;99.90;;;;;;5047421;28;20062;-83
2023/01/11 09:05:59;;;;;;;15.10;2.03;;;8.50;99.90;;;;;;5031338;28;20109;-81
2023/01/11 09:08:25;;;;;;;21.75;2.83;;;8.60;99.90;;;;;;5036103;28;20190;-81
2023/01/11 09:10:51;;;;;;;17.10;2.20;;;8.60;99.90;;;;;;5049444;28;20495;-82
2023/01/11 09:13:16;;;;;;;17.02;2.42;;;8.70;99.90;;;;;;5036132;28;20877;-82
2023/01/11 09:15:45;;;;;;;19.33;2.28;;;8.70;99.90;;;;;;5038423;28;20408;-81
2023/01/11 09:18:13;;;;;;;14.40;1.38;;;8.60;99.90;;;;;;5047017;28;20025;-83
2023/01/11 09:20:39;;;;;;;17.58;2.13;;;8.60;99.90;;;;;;5034334;28;20033;-82
2023/01/11 09:23:05;;;;;;;13.93;1.95;;;8.50;99.90;;;;;;5055317;28;20047;-81
2023/01/11 09:25:32;;;;;;;19.02;2.00;;;8.40;99.90;;;;;;5058190;28;20020;-82
2023/01/11 09:27:57;;;;;;;18.40;2.25;;;8.30;99.90;;;;;;5040746;28;20040;-83
2023/01/11 09:30:23;;;;;;;17.92;2.35;;;8.20;99.90;;;;;;5040101;28;20051;-82
2023/01/11 09:32:50;;;;;;;20.58;2.08;;;8.10;99.90;;;;;;5061363;28;20059;-82
2023/01/11 09:35:17;;;;;;;17.25;1.83;;;8.20;99.90;;;;;;5044607;28;20056;-83
2023/01/11 09:37:49;;;;;;;21.63;2.63;;;8.40;99.90;;;;;;5057698;28;20032;-83
2023/01/11 09:40:22;;;;;;;12.70;1.90;;;9.00;99.90;;;;;;5057885;28;20086;-85
2023/01/11 09:42:51;;;;;;;14.35;2.10;;;9.60;99.90;;;;;;5059368;28;20032;-82
2023/01/11 09:45:20;;;;;;;16.50;2.35;;;10.00;99.90;;;;;;5061660;28;20573;-84
2023/01/11 09:48:27;;;;;;;13.73;2.63;;;10.20;99.90;;;;;;5050608;28;20033;-81
2023/01/11 09:50:53;;;;;;;11.10;1.60;;;10.40;99.90;;;;;;5006655;28;20092;-81
2023/01/11 09:53:29;;;;;;;17.23;2.25;;;10.40;99.90;;;;;;5061693;28;20032;-85
2023/01/11 09:55:58;;;;;;;12.85;1.67;;;10.50;99.90;;;;;;5029672;28;20029;-85
2023/01/11 09:58:49;;;;;;;15.32;2.13;;;10.80;99.90;;;;;;5034297;28;20544;-84
2023/01/11 10:01:44;;;;;;;10.98;1.83;;;11.20;99.90;;;;;;5035938;28;20065;-85
2023/01/11 10:04:24;;;;;;;12.85;1.63;;;11.90;99.90;;;;;;5053102;28;20041;-84
2023/01/11 10:07:15;;;;;;;15.45;2.03;;;11.90;99.90;;;;;;5041834;28;20036;-85
2023/01/11 10:09:56;;;;;;;16.23;1.65;;;12.00;98.40;;;;;;5039253;28;20566;-82
2023/01/11 10:12:46;;;;;;;18.80;2.70;;;11.70;99.90;;;;;;5056025;28;20172;-84
2023/01/11 10:15:39;;;;;;;11.43;1.92;;;11.40;99.90;;;;;;5033848;28;20359;-84
2023/01/11 10:18:23;;;;;;;13.10;1.75;;;11.30;99.90;;;;;;5050409;28;20440;-82
2023/01/11 10:20:53;;;;;;;12.02;1.60;;;11.60;99.90;;;;;;5059551;28;20047;-85
2023/01/11 10:23:27;;;;;;;12.10;2.20;;;11.90;99.90;;;;;;5053408;28;20079;-85
2023/01/11 10:25:57;;;;;;;14.45;1.80;;;11.80;99.90;;;;;;5061040;28;20277;-84
2023/01/11 10:28:30;;;;;;;15.57;2.00;;;11.70;99.90;;;;;;5043539;28;20082;-86
2023/01/11 10:39:26;;;;;;;15.30;1.90;;;11.80;99.90;;;;;;5063527;28;20063;-83
2023/01/11 10:42:04;;;;;;;9.32;2.00;;;11.90;99.90;;;;;;5046430;28;20571;-84
2023/01/11 10:44:35;;;;;;;11.17;2.50;;;11.80;99.90;;;;;;4364504;28;10021530;-85
2023/01/11 10:47:02;;;;;;;12.65;1.88;;;11.80;99.90;;;;;;5044016;28;20482;-84
2023/01/11 10:49:42;;;;;;;11.98;1.65;;;11.70;99.90;;;;;;5062622;28;20131;-85
2023/01/11 10:52:25;;;;;;;17.98;1.80;;;11.90;99.90;;;;;;5065798;28;20220;-86
2023/01/11 10:54:54;;;;;;;16.77;2.03;;;11.90;99.90;;;;;;5060701;28;20021;-87
2023/01/11 10:57:26;;;;;;;16.65;2.30;;;11.90;99.90;;;;;;5047034;28;20037;-85
2023/01/11 11:00:03;;;;;;;;;;;12.00;99.90;;;;;;5062686;28;20052;-83
2023/01/11 11:02:55;;;;;;;18.98;2.47;;;12.00;99.90;;;;;;5038632;28;20016;-86
2023/01/11 11:05:52;;;;;;;12.25;1.60;;;12.10;99.90;;;;;;5062470;28;20076;-84
2023/01/11 11:08:28;;;;;;;14.48;2.10;;;12.50;99.90;;;;;;5041503;28;20028;-84
2023/01/11 11:11:07;;;;;;;16.42;2.17;;;12.80;99.40;;;;;;5062022;28;20032;-84
2023/01/11 11:13:53;;;;;;;14.85;1.75;;;12.50;98.50;;;;;;5036401;28;20044;-85
2023/01/11 11:16:21;;;;;;;16.55;2.50;;;12.50;99.90;;;;;;5057459;28;20036;-87
2023/01/11 11:18:57;;;;;;;15.82;2.88;;;12.20;99.90;;;;;;5061616;28;20478;-84
2023/01/11 11:21:29;;;;;;;15.85;2.17;;;12.60;99.90;;;;;;5043153;28;20032;-83
2023/01/11 11:23:59;;;;;;;12.45;1.85;;;12.80;98.20;;;;;;5057188;28;20691;-83
2023/01/11 11:26:36;;;;;;;16.90;2.70;;;13.00;98.20;;;;;;5041325;28;20044;-85
2023/01/11 11:29:05;;;;;;;15.68;2.00;;;13.10;95.70;;;;;;5058071;28;20024;-84
2023/01/11 11:31:31;;;;;;;14.43;2.08;;;13.20;93.20;;;;;;5041406;28;20024;-83
2023/01/11 11:34:06;;;;;;;19.55;2.92;;;13.30;94.10;;;;;;5053112;28;20036;-83
2023/01/11 11:36:46;;;;;;;13.77;2.10;;;13.00;96.50;;;;;;5054434;28;20143;-83
2023/01/11 11:39:27;;;;;;;10.98;1.80;;;12.90;99.90;;;;;;5052816;28;20348;-83
2023/01/11 11:42:05;;;;;;;14.38;2.58;;;12.80;97.50;;;;;;5041468;28;20036;-82
2023/01/11 11:44:31;;;;;;;16.38;2.05;;;12.80;99.60;;;;;;5039563;28;20112;-83
2023/01/11 11:47:05;;;;;;;12.43;1.92;;;12.80;99.90;;;;;;5044702;28;20034;-82
2023/01/11 11:49:33;;;;;;;15.38;2.10;;;12.90;99.90;;;;;;5063494;28;20034;-82
2023/01/11 11:52:04;;;;;;;16.13;3.25;;;13.00;97.20;;;;;;5040058;28;20040;-84
2023/01/11 11:54:33;;;;;;;13.65;1.80;;;12.70;99.90;;;;;;5037982;28;20029;-84
2023/01/11 11:57:13;;;;;;;18.70;2.42;;;12.70;98.20;;;;;;5048561;28;20032;-83
2023/01/11 11:59:46;;;;;;;16.65;2.40;;;12.90;95.70;;;;;;5060121;28;20031;-83
2023/01/11 12:02:29;;;;;;;17.42;2.40;;;12.90;95.50;;;;;;5043935;28;20519;-85
2023/01/11 12:04:57;;;;;;;13.38;1.90;;;13.10;97.70;;;;;;5041319;28;20040;-82
2023/01/11 12:07:32;;;;;;;14.90;2.05;;;13.20;96.50;;;;;;5055505;28;20154;-83
2023/01/11 12:09:59;;;;;;;9.20;1.67;;;13.00;94.10;;;;;;5034736;28;20035;-82
2023/01/11 12:12:25;;;;;;;12.52;1.55;;;12.90;97.10;;;;;;5039183;28;20037;-84
2023/01/11 12:15:20;;;;;;;20.23;2.30;;;13.10;99.90;;;;;;5058534;28;20033;-83
2023/01/11 12:17:47;;;;;;;17.73;2.28;;;13.00;98.10;;;;;;5057193;28;20097;-84
2023/01/11 12:20:22;;;;;;;22.70;2.50;;;13.20;99.90;;;;;;5042013;28;20255;-85
2023/01/11 12:23:07;;;;;;;12.63;2.25;;;13.40;99.90;;;;;;5047268;28;20106;-84
2023/01/11 12:25:50;;;;;;;21.67;2.45;;;13.40;99.20;;;;;;5043323;28;20045;-85
2023/01/11 12:28:26;;;;;;;15.43;2.13;;;13.70;99.90;;;;;;5043449;28;20028;-85
2023/01/11 12:31:05;;;;;;;17.25;2.47;;;13.80;98.30;;;;;;5039330;28;20048;-86
2023/01/11 12:33:59;;;;;;;10.35;2.03;;;13.80;95.50;;;;;;5057793;28;20332;-87
2023/01/11 12:36:40;;;;;;;12.30;2.50;;;13.50;95.00;;;;;;5055463;28;20289;-86
2023/01/11 12:39:29;;;;;;;22.55;2.78;;;13.20;96.50;;;;;;5031143;28;20124;-86
2023/01/11 12:42:13;;;;;;;19.05;2.78;;;13.00;99.90;;;;;;5025103;28;20040;-84
2023/01/11 12:44:50;;;;;;;19.17;2.60;;;12.60;99.90;;;;;;5051549;28;20174;-86
2023/01/11 12:47:24;;;;;;;21.05;2.95;;;12.00;99.90;;;;;;5054176;28;20033;-86
2023/01/11 12:50:01;;;;;;;18.35;2.65;;;11.60;99.90;;;;;;5038807;28;20084;-88
2023/01/11 12:53:11;;;;;;;13.23;2.55;;;11.40;99.90;;;;;;5047554;28;20048;-86
2023/01/11 12:55:55;;;;;;;18.00;2.53;;;11.80;99.90;;;;;;5031354;28;20032;-82
2023/01/11 12:58:21;;;;;;;25.73;3.10;;;12.50;99.90;;;;;;5059099;28;20157;-85
2023/01/11 13:01:05;;;;;;;17.65;2.17;;;12.70;99.90;;;;;;5063856;28;20086;-83
2023/01/11 13:03:50;;;;;;;17.35;2.30;;;12.70;99.90;;;;;;5037888;28;20056;-84
2023/01/11 13:06:28;;;;;;;13.15;2.50;;;12.70;99.90;;;;;;5041356;28;20032;-85
2023/01/11 13:09:07;;;;;;;15.65;2.40;;;12.80;99.90;;;;;;5057649;28;20029;-85
2023/01/11 13:12:13;;;;;;;23.23;2.88;;;12.30;99.90;;;;;;5043615;28;20032;-83
2023/01/11 13:15:00;;;;;;;18.88;2.30;;;11.80;99.90;;;;;;5043209;28;20119;-84
2023/01/11 13:17:50;;;;;;;24.38;2.83;;;11.30;99.90;;;;;;5060426;28;20044;-84
2023/01/11 13:20:31;;;;;;;18.67;2.65;;;11.30;99.90;;;;;;5022260;28;20028;-84
2023/01/11 13:23:04;;;;;;;23.17;3.15;;;11.30;99.90;;;;;;5044973;28;20024;-85
2023/01/11 13:25:37;;;;;;;25.92;3.95;;;11.30;99.90;;;;;;5048450;28;20028;-83
2023/01/11 13:28:35;;;;;;;23.13;3.95;;;11.40;99.90;;;;;;5023083;28;20025;-84
2023/01/11 13:31:05;;;;;;;23.52;3.28;;;11.40;99.90;;;;;;5012139;28;20257;-84
2023/01/11 13:33:31;;;;;;;13.15;2.30;;;11.50;99.90;;;;;;5032065;28;20704;-85
2023/01/11 13:36:12;;;;;;;26.20;2.83;;;11.50;99.90;;;;;;5034577;28;20112;-83
2023/01/11 13:39:03;;;;;;;23.98;3.28;;;11.50;99.90;;;;;;5043197;28;20075;-83
2023/01/11 13:42:02;;;;;;;25.65;3.33;;;11.40;99.90;;;;;;5053446;28;20083;-83